sensor_id;sensor_type;location;lat;lon;timestamp;P1;durP1;ratioP1;P2;durP2;ratioP2
11220;SDS011;8517;53.546;10.104;2024-02-28T00:01:53;13.63;;;12.23;;
11220;SDS011;8517;53.546;10.104;2024-02-28T00:04:20;14.97;;;13.47;;
11220;SDS011;8517;53.546;10.104;2024-02-28T00:06:46;14.73;;;13.30;;
11220;SDS011;8517;53.546;10.104;2024-02-28T00:09:22;14.27;;;12.77;;
11220;SDS011;8517;53.546;10.104;2024-02-28T00:11:49;15.27;;;13.77;;
11220;SDS011;8517;53.546;10.104;2024-02-28T00:14:17;15.47;;;13.90;;
11220;SDS011;8517;53.546;10.104;2024-02-28T00:16:45;14.47;;;13.07;;
11220;SDS011;8517;53.546;10.104;2024-02-28T00:19:13;15.13;;;13.53;;
11220;SDS011;8517;53.546;10.104;2024-02-28T00:21:40;14.87;;;12.73;;
11220;SDS011;8517;53.546;10.104;2024-02-28T00:24:07;13.63;;;12.23;;
11220;SDS011;8517;53.546;10.104;2024-02-28T00:26:34;14.27;;;12.77;;
11220;SDS011;8517;53.546;10.104;2024-02-28T00:29:01;14.87;;;12.87;;
11220;SDS011;8517;53.546;10.104;2024-02-28T00:31:29;17.03;;;14.93;;
11220;SDS011;8517;53.546;10.104;2024-02-28T00:33:56;16.70;;;14.90;;
11220;SDS011;8517;53.546;10.104;2024-02-28T00:36:23;17.50;;;15.80;;
11220;SDS011;8517;53.546;10.104;2024-02-28T00:38:50;18.27;;;16.37;;
11220;SDS011;8517;53.546;10.104;2024-02-28T00:41:16;20.60;;;17.07;;
11220;SDS011;8517;53.546;10.104;2024-02-28T00:43:43;23.37;;;20.67;;
11220;SDS011;8517;53.546;10.104;2024-02-28T00:46:10;23.90;;;21.30;;
11220;SDS011;8517;53.546;10.104;2024-02-28T00:48:38;22.87;;;20.43;;
11220;SDS011;8517;53.546;10.104;2024-02-28T00:51:05;22.17;;;19.87;;
11220;SDS011;8517;53.546;10.104;2024-02-28T00:53:33;22.23;;;19.93;;
11220;SDS011;8517;53.546;10.104;2024-02-28T00:56:00;21.33;;;19.13;;
11220;SDS011;8517;53.546;10.104;2024-02-28T00:58:26;22.40;;;20.00;;
11220;SDS011;8517;53.546;10.104;2024-02-28T01:00:55;22.00;;;19.50;;
11220;SDS011;8517;53.546;10.104;2024-02-28T01:03:22;23.80;;;19.90;;
11220;SDS011;8517;53.546;10.104;2024-02-28T01:05:51;21.93;;;19.50;;
11220;SDS011;8517;53.546;10.104;2024-02-28T01:08:17;20.97;;;18.80;;
11220;SDS011;8517;53.546;10.104;2024-02-28T01:10:44;20.67;;;18.47;;
11220;SDS011;8517;53.546;10.104;2024-02-28T01:13:11;22.10;;;19.43;;
11220;SDS011;8517;53.546;10.104;2024-02-28T01:15:39;21.40;;;19.10;;
11220;SDS011;8517;53.546;10.104;2024-02-28T01:18:06;22.90;;;20.23;;
11220;SDS011;8517;53.546;10.104;2024-02-28T01:20:33;21.27;;;18.97;;
11220;SDS011;8517;53.546;10.104;2024-02-28T01:23:01;22.47;;;19.70;;
11220;SDS011;8517;53.546;10.104;2024-02-28T01:25:28;21.83;;;19.43;;
11220;SDS011;8517;53.546;10.104;2024-02-28T01:27:55;20.60;;;18.33;;
11220;SDS011;8517;53.546;10.104;2024-02-28T01:30:23;22.73;;;19.13;;
11220;SDS011;8517;53.546;10.104;2024-02-28T01:32:50;21.97;;;19.20;;
11220;SDS011;8517;53.546;10.104;2024-02-28T01:35:16;23.27;;;19.93;;
11220;SDS011;8517;53.546;10.104;2024-02-28T01:37:43;23.53;;;20.83;;
11220;SDS011;8517;53.546;10.104;2024-02-28T01:40:12;25.23;;;20.97;;
11220;SDS011;8517;53.546;10.104;2024-02-28T01:42:39;23.10;;;20.03;;
11220;SDS011;8517;53.546;10.104;2024-02-28T01:45:06;23.23;;;20.00;;
11220;SDS011;8517;53.546;10.104;2024-02-28T01:47:41;25.80;;;22.13;;
11220;SDS011;8517;53.546;10.104;2024-02-28T01:50:23;21.63;;;19.17;;
11220;SDS011;8517;53.546;10.104;2024-02-28T01:52:50;22.30;;;18.80;;
11220;SDS011;8517;53.546;10.104;2024-02-28T01:55:18;22.40;;;20.00;;
11220;SDS011;8517;53.546;10.104;2024-02-28T01:57:45;23.90;;;21.10;;
11220;SDS011;8517;53.546;10.104;2024-02-28T02:00:12;25.03;;;20.07;;
11220;SDS011;8517;53.546;10.104;2024-02-28T02:02:41;21.83;;;19.07;;
11220;SDS011;8517;53.546;10.104;2024-02-28T02:05:09;24.47;;;20.70;;
11220;SDS011;8517;53.546;10.104;2024-02-28T02:07:36;26.90;;;21.63;;
11220;SDS011;8517;53.546;10.104;2024-02-28T02:10:04;25.83;;;22.63;;
11220;SDS011;8517;53.546;10.104;2024-02-28T02:12:35;27.23;;;22.27;;
11220;SDS011;8517;53.546;10.104;2024-02-28T02:15:02;28.93;;;23.30;;
11220;SDS011;8517;53.546;10.104;2024-02-28T02:17:30;28.90;;;22.60;;
11220;SDS011;8517;53.546;10.104;2024-02-28T02:19:56;28.20;;;22.70;;
11220;SDS011;8517;53.546;10.104;2024-02-28T02:22:23;30.90;;;24.50;;
11220;SDS011;8517;53.546;10.104;2024-02-28T02:24:57;28.23;;;22.83;;
11220;SDS011;8517;53.546;10.104;2024-02-28T02:27:24;28.27;;;23.07;;
11220;SDS011;8517;53.546;10.104;2024-02-28T02:29:51;26.77;;;21.47;;
11220;SDS011;8517;53.546;10.104;2024-02-28T02:32:17;27.93;;;22.83;;
11220;SDS011;8517;53.546;10.104;2024-02-28T02:34:44;30.10;;;22.13;;
11220;SDS011;8517;53.546;10.104;2024-02-28T02:37:11;28.87;;;23.13;;
11220;SDS011;8517;53.546;10.104;2024-02-28T02:39:38;32.03;;;23.90;;
11220;SDS011;8517;53.546;10.104;2024-02-28T02:42:06;28.90;;;22.60;;
11220;SDS011;8517;53.546;10.104;2024-02-28T02:44:33;30.67;;;23.83;;
11220;SDS011;8517;53.546;10.104;2024-02-28T02:47:00;29.63;;;23.57;;
11220;SDS011;8517;53.546;10.104;2024-02-28T02:49:27;29.37;;;23.17;;
11220;SDS011;8517;53.546;10.104;2024-02-28T02:51:54;29.27;;;22.77;;
11220;SDS011;8517;53.546;10.104;2024-02-28T02:54:21;29.67;;;23.17;;
11220;SDS011;8517;53.546;10.104;2024-02-28T02:56:47;29.47;;;23.07;;
11220;SDS011;8517;53.546;10.104;2024-02-28T02:59:15;30.63;;;23.10;;
11220;SDS011;8517;53.546;10.104;2024-02-28T03:01:45;31.13;;;23.30;;
11220;SDS011;8517;53.546;10.104;2024-02-28T03:04:13;30.60;;;22.93;;
11220;SDS011;8517;53.546;10.104;2024-02-28T03:06:39;33.23;;;24.70;;
11220;SDS011;8517;53.546;10.104;2024-02-28T03:09:06;29.67;;;23.13;;
11220;SDS011;8517;53.546;10.104;2024-02-28T03:11:33;32.17;;;23.07;;
11220;SDS011;8517;53.546;10.104;2024-02-28T03:14:01;32.00;;;23.43;;
11220;SDS011;8517;53.546;10.104;2024-02-28T03:16:29;30.33;;;22.17;;
11220;SDS011;8517;53.546;10.104;2024-02-28T03:18:56;32.27;;;24.17;;
11220;SDS011;8517;53.546;10.104;2024-02-28T03:21:22;31.30;;;22.93;;
11220;SDS011;8517;53.546;10.104;2024-02-28T03:23:49;29.93;;;22.70;;
11220;SDS011;8517;53.546;10.104;2024-02-28T03:26:16;31.30;;;22.53;;
11220;SDS011;8517;53.546;10.104;2024-02-28T03:28:43;29.73;;;21.87;;
11220;SDS011;8517;53.546;10.104;2024-02-28T03:31:09;30.43;;;23.27;;
11220;SDS011;8517;53.546;10.104;2024-02-28T03:33:38;29.00;;;21.73;;
11220;SDS011;8517;53.546;10.104;2024-02-28T03:36:05;30.60;;;22.27;;
11220;SDS011;8517;53.546;10.104;2024-02-28T03:38:32;31.93;;;22.93;;
11220;SDS011;8517;53.546;10.104;2024-02-28T03:40:58;29.37;;;20.83;;
11220;SDS011;8517;53.546;10.104;2024-02-28T03:43:25;33.53;;;23.33;;
11220;SDS011;8517;53.546;10.104;2024-02-28T03:45:52;31.23;;;23.47;;
11220;SDS011;8517;53.546;10.104;2024-02-28T03:48:19;31.23;;;23.20;;
11220;SDS011;8517;53.546;10.104;2024-02-28T03:50:47;31.87;;;24.10;;
11220;SDS011;8517;53.546;10.104;2024-02-28T03:53:13;31.97;;;23.40;;
11220;SDS011;8517;53.546;10.104;2024-02-28T03:55:39;32.80;;;22.93;;
11220;SDS011;8517;53.546;10.104;2024-02-28T03:58:06;33.27;;;23.50;;
11220;SDS011;8517;53.546;10.104;2024-02-28T04:00:33;33.17;;;23.60;;
11220;SDS011;8517;53.546;10.104;2024-02-28T04:03:01;31.20;;;22.80;;
11220;SDS011;8517;53.546;10.104;2024-02-28T04:05:28;31.77;;;23.03;;
11220;SDS011;8517;53.546;10.104;2024-02-28T04:07:56;32.87;;;23.50;;
11220;SDS011;8517;53.546;10.104;2024-02-28T04:10:23;32.67;;;23.27;;
11220;SDS011;8517;53.546;10.104;2024-02-28T04:12:49;33.03;;;22.73;;
11220;SDS011;8517;53.546;10.104;2024-02-28T04:15:16;33.10;;;23.37;;
11220;SDS011;8517;53.546;10.104;2024-02-28T04:17:43;30.23;;;21.77;;
11220;SDS011;8517;53.546;10.104;2024-02-28T04:20:10;33.00;;;22.73;;
11220;SDS011;8517;53.546;10.104;2024-02-28T04:22:38;33.53;;;22.03;;
11220;SDS011;8517;53.546;10.104;2024-02-28T04:25:07;29.83;;;21.43;;
11220;SDS011;8517;53.546;10.104;2024-02-28T04:27:35;33.73;;;21.90;;
11220;SDS011;8517;53.546;10.104;2024-02-28T04:30:02;28.67;;;20.87;;
11220;SDS011;8517;53.546;10.104;2024-02-28T04:32:29;28.27;;;20.03;;
11220;SDS011;8517;53.546;10.104;2024-02-28T04:34:56;30.93;;;21.07;;
11220;SDS011;8517;53.546;10.104;2024-02-28T04:37:23;30.03;;;21.27;;
11220;SDS011;8517;53.546;10.104;2024-02-28T04:39:50;31.00;;;20.77;;
11220;SDS011;8517;53.546;10.104;2024-02-28T04:42:18;29.30;;;20.33;;
11220;SDS011;8517;53.546;10.104;2024-02-28T04:44:45;29.77;;;21.70;;
11220;SDS011;8517;53.546;10.104;2024-02-28T04:47:12;31.50;;;21.23;;
11220;SDS011;8517;53.546;10.104;2024-02-28T04:49:38;32.80;;;21.47;;
11220;SDS011;8517;53.546;10.104;2024-02-28T04:52:05;28.80;;;20.40;;
11220;SDS011;8517;53.546;10.104;2024-02-28T04:54:32;32.23;;;21.57;;
11220;SDS011;8517;53.546;10.104;2024-02-28T04:56:59;32.40;;;22.93;;
11220;SDS011;8517;53.546;10.104;2024-02-28T04:59:27;30.37;;;22.03;;
11220;SDS011;8517;53.546;10.104;2024-02-28T05:01:54;30.20;;;21.07;;
11220;SDS011;8517;53.546;10.104;2024-02-28T05:04:21;30.93;;;20.87;;
11220;SDS011;8517;53.546;10.104;2024-02-28T05:06:48;32.40;;;21.70;;
11220;SDS011;8517;53.546;10.104;2024-02-28T05:09:15;28.00;;;20.67;;
11220;SDS011;8517;53.546;10.104;2024-02-28T05:11:42;32.23;;;22.07;;
11220;SDS011;8517;53.546;10.104;2024-02-28T05:14:10;31.20;;;21.50;;
11220;SDS011;8517;53.546;10.104;2024-02-28T05:16:38;30.10;;;21.53;;
11220;SDS011;8517;53.546;10.104;2024-02-28T05:19:05;31.67;;;22.47;;
11220;SDS011;8517;53.546;10.104;2024-02-28T05:21:38;30.37;;;22.47;;
11220;SDS011;8517;53.546;10.104;2024-02-28T05:24:06;28.37;;;20.43;;
11220;SDS011;8517;53.546;10.104;2024-02-28T05:26:35;27.23;;;20.73;;
11220;SDS011;8517;53.546;10.104;2024-02-28T05:29:03;28.87;;;21.63;;
11220;SDS011;8517;53.546;10.104;2024-02-28T05:31:30;29.33;;;20.83;;
11220;SDS011;8517;53.546;10.104;2024-02-28T05:33:59;29.53;;;21.37;;
11220;SDS011;8517;53.546;10.104;2024-02-28T05:36:27;31.23;;;22.33;;
11220;SDS011;8517;53.546;10.104;2024-02-28T05:38:55;28.50;;;20.73;;
11220;SDS011;8517;53.546;10.104;2024-02-28T05:41:23;27.17;;;19.37;;
11220;SDS011;8517;53.546;10.104;2024-02-28T05:43:50;29.00;;;19.87;;
11220;SDS011;8517;53.546;10.104;2024-02-28T05:46:18;27.43;;;19.83;;
11220;SDS011;8517;53.546;10.104;2024-02-28T05:48:45;25.33;;;19.27;;
11220;SDS011;8517;53.546;10.104;2024-02-28T05:51:13;25.30;;;19.37;;
11220;SDS011;8517;53.546;10.104;2024-02-28T05:53:40;28.00;;;20.20;;
11220;SDS011;8517;53.546;10.104;2024-02-28T05:56:08;25.03;;;19.33;;
11220;SDS011;8517;53.546;10.104;2024-02-28T05:58:39;25.87;;;18.90;;
11220;SDS011;8517;53.546;10.104;2024-02-28T06:01:06;25.90;;;18.50;;
11220;SDS011;8517;53.546;10.104;2024-02-28T06:03:33;25.20;;;18.77;;
11220;SDS011;8517;53.546;10.104;2024-02-28T06:06:00;26.30;;;19.33;;
11220;SDS011;8517;53.546;10.104;2024-02-28T06:08:31;25.87;;;17.97;;
11220;SDS011;8517;53.546;10.104;2024-02-28T06:10:58;23.07;;;17.67;;
11220;SDS011;8517;53.546;10.104;2024-02-28T06:13:25;23.00;;;16.97;;
11220;SDS011;8517;53.546;10.104;2024-02-28T06:15:53;24.33;;;17.97;;
11220;SDS011;8517;53.546;10.104;2024-02-28T06:18:19;22.80;;;16.70;;
11220;SDS011;8517;53.546;10.104;2024-02-28T06:20:48;22.23;;;16.63;;
11220;SDS011;8517;53.546;10.104;2024-02-28T06:23:14;22.60;;;15.97;;
11220;SDS011;8517;53.546;10.104;2024-02-28T06:25:43;19.80;;;15.43;;
11220;SDS011;8517;53.546;10.104;2024-02-28T06:28:09;19.47;;;14.83;;
11220;SDS011;8517;53.546;10.104;2024-02-28T06:30:36;20.17;;;16.20;;
11220;SDS011;8517;53.546;10.104;2024-02-28T06:33:03;20.27;;;14.97;;
11220;SDS011;8517;53.546;10.104;2024-02-28T06:35:30;19.40;;;15.87;;
11220;SDS011;8517;53.546;10.104;2024-02-28T06:37:57;22.73;;;16.10;;
11220;SDS011;8517;53.546;10.104;2024-02-28T06:40:24;18.43;;;14.03;;
11220;SDS011;8517;53.546;10.104;2024-02-28T06:42:52;20.67;;;15.37;;
11220;SDS011;8517;53.546;10.104;2024-02-28T06:45:19;20.70;;;16.00;;
11220;SDS011;8517;53.546;10.104;2024-02-28T06:47:46;17.80;;;14.43;;
11220;SDS011;8517;53.546;10.104;2024-02-28T06:50:13;20.17;;;15.27;;
11220;SDS011;8517;53.546;10.104;2024-02-28T06:52:40;22.07;;;15.93;;
11220;SDS011;8517;53.546;10.104;2024-02-28T06:55:07;20.27;;;15.20;;
11220;SDS011;8517;53.546;10.104;2024-02-28T06:57:35;20.53;;;15.10;;
11220;SDS011;8517;53.546;10.104;2024-02-28T07:00:04;20.63;;;16.93;;
11220;SDS011;8517;53.546;10.104;2024-02-28T07:02:33;20.67;;;15.83;;
11220;SDS011;8517;53.546;10.104;2024-02-28T07:05:00;19.70;;;15.17;;
11220;SDS011;8517;53.546;10.104;2024-02-28T07:07:28;18.87;;;14.87;;
11220;SDS011;8517;53.546;10.104;2024-02-28T07:09:55;20.97;;;14.73;;
11220;SDS011;8517;53.546;10.104;2024-02-28T07:12:22;18.93;;;14.93;;
11220;SDS011;8517;53.546;10.104;2024-02-28T07:14:49;19.17;;;14.87;;
11220;SDS011;8517;53.546;10.104;2024-02-28T07:17:18;20.27;;;15.07;;
11220;SDS011;8517;53.546;10.104;2024-02-28T07:19:45;19.53;;;14.47;;
11220;SDS011;8517;53.546;10.104;2024-02-28T07:22:11;21.30;;;16.23;;
11220;SDS011;8517;53.546;10.104;2024-02-28T07:24:38;20.73;;;16.07;;
11220;SDS011;8517;53.546;10.104;2024-02-28T07:27:06;21.73;;;16.00;;
11220;SDS011;8517;53.546;10.104;2024-02-28T07:29:33;21.40;;;15.63;;
11220;SDS011;8517;53.546;10.104;2024-02-28T07:32:00;21.20;;;15.97;;
11220;SDS011;8517;53.546;10.104;2024-02-28T07:34:29;22.73;;;15.83;;
11220;SDS011;8517;53.546;10.104;2024-02-28T07:36:56;20.30;;;16.10;;
11220;SDS011;8517;53.546;10.104;2024-02-28T07:39:23;18.93;;;13.43;;
11220;SDS011;8517;53.546;10.104;2024-02-28T07:41:49;21.93;;;16.50;;
11220;SDS011;8517;53.546;10.104;2024-02-28T07:44:16;20.20;;;16.07;;
11220;SDS011;8517;53.546;10.104;2024-02-28T07:46:43;23.70;;;17.10;;
11220;SDS011;8517;53.546;10.104;2024-02-28T07:49:10;26.60;;;17.43;;
11220;SDS011;8517;53.546;10.104;2024-02-28T07:54:38;19.33;;;15.20;;
11220;SDS011;8517;53.546;10.104;2024-02-28T07:57:07;19.60;;;14.17;;
11220;SDS011;8517;53.546;10.104;2024-02-28T07:59:38;19.83;;;15.50;;
11220;SDS011;8517;53.546;10.104;2024-02-28T08:02:05;20.97;;;15.87;;
11220;SDS011;8517;53.546;10.104;2024-02-28T08:04:32;20.87;;;15.73;;
11220;SDS011;8517;53.546;10.104;2024-02-28T08:06:59;19.33;;;16.07;;
11220;SDS011;8517;53.546;10.104;2024-02-28T08:09:26;22.50;;;15.40;;
11220;SDS011;8517;53.546;10.104;2024-02-28T08:11:55;20.90;;;16.00;;
11220;SDS011;8517;53.546;10.104;2024-02-28T08:14:24;19.40;;;15.53;;
11220;SDS011;8517;53.546;10.104;2024-02-28T08:16:50;23.30;;;16.33;;
11220;SDS011;8517;53.546;10.104;2024-02-28T08:19:17;23.10;;;17.10;;
11220;SDS011;8517;53.546;10.104;2024-02-28T08:21:44;22.50;;;17.30;;
11220;SDS011;8517;53.546;10.104;2024-02-28T08:24:11;23.43;;;16.27;;
11220;SDS011;8517;53.546;10.104;2024-02-28T08:26:38;22.73;;;16.83;;
11220;SDS011;8517;53.546;10.104;2024-02-28T08:29:07;21.80;;;16.80;;
11220;SDS011;8517;53.546;10.104;2024-02-28T08:31:39;22.53;;;17.17;;
11220;SDS011;8517;53.546;10.104;2024-02-28T08:34:06;21.77;;;16.50;;
11220;SDS011;8517;53.546;10.104;2024-02-28T08:36:33;25.37;;;18.30;;
11220;SDS011;8517;53.546;10.104;2024-02-28T08:39:00;22.53;;;16.80;;
11220;SDS011;8517;53.546;10.104;2024-02-28T08:41:29;24.73;;;17.83;;
11220;SDS011;8517;53.546;10.104;2024-02-28T08:43:57;23.23;;;17.60;;
11220;SDS011;8517;53.546;10.104;2024-02-28T08:46:25;24.33;;;18.77;;
11220;SDS011;8517;53.546;10.104;2024-02-28T08:48:52;22.93;;;17.83;;
11220;SDS011;8517;53.546;10.104;2024-02-28T08:51:19;25.00;;;17.77;;
11220;SDS011;8517;53.546;10.104;2024-02-28T08:53:45;23.73;;;18.97;;
11220;SDS011;8517;53.546;10.104;2024-02-28T08:56:12;25.47;;;19.83;;
11220;SDS011;8517;53.546;10.104;2024-02-28T08:58:39;29.27;;;21.00;;
11220;SDS011;8517;53.546;10.104;2024-02-28T09:01:06;26.10;;;19.30;;
11220;SDS011;8517;53.546;10.104;2024-02-28T09:03:34;27.33;;;19.73;;
11220;SDS011;8517;53.546;10.104;2024-02-28T09:06:01;30.80;;;22.10;;
11220;SDS011;8517;53.546;10.104;2024-02-28T09:08:28;24.30;;;20.03;;
11220;SDS011;8517;53.546;10.104;2024-02-28T09:10:55;28.27;;;21.93;;
11220;SDS011;8517;53.546;10.104;2024-02-28T09:13:22;28.43;;;22.07;;
11220;SDS011;8517;53.546;10.104;2024-02-28T09:15:49;29.23;;;21.83;;
11220;SDS011;8517;53.546;10.104;2024-02-28T09:18:16;31.60;;;23.63;;
11220;SDS011;8517;53.546;10.104;2024-02-28T09:20:44;31.57;;;22.33;;
11220;SDS011;8517;53.546;10.104;2024-02-28T09:23:10;30.77;;;23.17;;
11220;SDS011;8517;53.546;10.104;2024-02-28T09:25:39;30.60;;;23.50;;
11220;SDS011;8517;53.546;10.104;2024-02-28T09:28:06;31.43;;;23.13;;
11220;SDS011;8517;53.546;10.104;2024-02-28T09:30:33;29.27;;;23.33;;
11220;SDS011;8517;53.546;10.104;2024-02-28T09:33:00;27.80;;;22.73;;
11220;SDS011;8517;53.546;10.104;2024-02-28T09:35:27;30.37;;;23.73;;
11220;SDS011;8517;53.546;10.104;2024-02-28T09:37:55;30.30;;;23.63;;
11220;SDS011;8517;53.546;10.104;2024-02-28T09:40:22;33.53;;;24.33;;
11220;SDS011;8517;53.546;10.104;2024-02-28T09:42:51;31.40;;;24.43;;
11220;SDS011;8517;53.546;10.104;2024-02-28T09:45:19;34.77;;;26.47;;
11220;SDS011;8517;53.546;10.104;2024-02-28T09:47:47;32.80;;;25.60;;
11220;SDS011;8517;53.546;10.104;2024-02-28T09:50:14;35.83;;;26.13;;
11220;SDS011;8517;53.546;10.104;2024-02-28T09:52:44;32.10;;;24.57;;
11220;SDS011;8517;53.546;10.104;2024-02-28T09:55:12;33.80;;;25.37;;
11220;SDS011;8517;53.546;10.104;2024-02-28T09:57:39;33.83;;;25.17;;
11220;SDS011;8517;53.546;10.104;2024-02-28T10:00:09;33.93;;;24.13;;
11220;SDS011;8517;53.546;10.104;2024-02-28T10:02:36;32.53;;;25.50;;
11220;SDS011;8517;53.546;10.104;2024-02-28T10:05:05;36.23;;;26.07;;
11220;SDS011;8517;53.546;10.104;2024-02-28T10:07:34;32.70;;;24.53;;
11220;SDS011;8517;53.546;10.104;2024-02-28T10:10:01;31.70;;;23.90;;
11220;SDS011;8517;53.546;10.104;2024-02-28T10:12:31;31.03;;;24.20;;
11220;SDS011;8517;53.546;10.104;2024-02-28T10:14:59;33.10;;;24.30;;
11220;SDS011;8517;53.546;10.104;2024-02-28T10:17:26;28.00;;;22.73;;
11220;SDS011;8517;53.546;10.104;2024-02-28T10:19:53;31.50;;;24.33;;
11220;SDS011;8517;53.546;10.104;2024-02-28T10:22:20;28.60;;;21.90;;
11220;SDS011;8517;53.546;10.104;2024-02-28T10:24:47;29.00;;;21.97;;
11220;SDS011;8517;53.546;10.104;2024-02-28T10:27:15;28.07;;;22.40;;
11220;SDS011;8517;53.546;10.104;2024-02-28T10:29:45;28.80;;;22.57;;
11220;SDS011;8517;53.546;10.104;2024-02-28T10:32:12;30.93;;;22.30;;
11220;SDS011;8517;53.546;10.104;2024-02-28T10:34:39;22.50;;;18.03;;
11220;SDS011;8517;53.546;10.104;2024-02-28T10:37:07;17.17;;;15.03;;
11220;SDS011;8517;53.546;10.104;2024-02-28T10:39:35;18.10;;;14.03;;
11220;SDS011;8517;53.546;10.104;2024-02-28T10:42:04;18.13;;;13.97;;
11220;SDS011;8517;53.546;10.104;2024-02-28T10:44:33;18.30;;;14.37;;
11220;SDS011;8517;53.546;10.104;2024-02-28T10:47:03;18.50;;;15.00;;
11220;SDS011;8517;53.546;10.104;2024-02-28T10:49:33;19.23;;;14.37;;
11220;SDS011;8517;53.546;10.104;2024-02-28T10:52:00;15.50;;;12.80;;
11220;SDS011;8517;53.546;10.104;2024-02-28T10:54:29;18.77;;;13.40;;
11220;SDS011;8517;53.546;10.104;2024-02-28T10:57:00;19.90;;;12.80;;
11220;SDS011;8517;53.546;10.104;2024-02-28T10:59:27;18.33;;;14.03;;
11220;SDS011;8517;53.546;10.104;2024-02-28T11:01:55;18.20;;;13.20;;
11220;SDS011;8517;53.546;10.104;2024-02-28T11:04:24;21.93;;;17.43;;
11220;SDS011;8517;53.546;10.104;2024-02-28T11:06:51;20.30;;;17.00;;
11220;SDS011;8517;53.546;10.104;2024-02-28T11:09:20;24.57;;;20.37;;
11220;SDS011;8517;53.546;10.104;2024-02-28T11:11:48;23.33;;;19.40;;
11220;SDS011;8517;53.546;10.104;2024-02-28T11:14:16;21.43;;;17.50;;
11220;SDS011;8517;53.546;10.104;2024-02-28T11:16:46;22.83;;;19.10;;
11220;SDS011;8517;53.546;10.104;2024-02-28T11:19:19;23.63;;;19.33;;
11220;SDS011;8517;53.546;10.104;2024-02-28T11:21:53;26.10;;;19.47;;
11220;SDS011;8517;53.546;10.104;2024-02-28T11:24:22;25.50;;;19.70;;
11220;SDS011;8517;53.546;10.104;2024-02-28T11:26:57;28.20;;;20.20;;
11220;SDS011;8517;53.546;10.104;2024-02-28T11:29:34;28.83;;;20.00;;
11220;SDS011;8517;53.546;10.104;2024-02-28T11:32:01;28.13;;;20.23;;
11220;SDS011;8517;53.546;10.104;2024-02-28T11:34:28;25.43;;;19.67;;
11220;SDS011;8517;53.546;10.104;2024-02-28T11:36:56;25.17;;;19.23;;
11220;SDS011;8517;53.546;10.104;2024-02-28T11:39:24;27.67;;;20.97;;
11220;SDS011;8517;53.546;10.104;2024-02-28T11:41:51;21.90;;;15.77;;
11220;SDS011;8517;53.546;10.104;2024-02-28T11:44:18;19.13;;;13.93;;
11220;SDS011;8517;53.546;10.104;2024-02-28T11:46:45;18.63;;;14.73;;
11220;SDS011;8517;53.546;10.104;2024-02-28T11:49:12;19.67;;;14.53;;
11220;SDS011;8517;53.546;10.104;2024-02-28T11:51:42;18.53;;;12.50;;
11220;SDS011;8517;53.546;10.104;2024-02-28T11:54:11;20.17;;;13.63;;
11220;SDS011;8517;53.546;10.104;2024-02-28T11:56:38;17.77;;;13.87;;
11220;SDS011;8517;53.546;10.104;2024-02-28T11:59:05;20.00;;;12.57;;
11220;SDS011;8517;53.546;10.104;2024-02-28T12:01:33;18.73;;;15.17;;
11220;SDS011;8517;53.546;10.104;2024-02-28T12:04:04;20.10;;;15.13;;
11220;SDS011;8517;53.546;10.104;2024-02-28T12:06:32;18.70;;;14.93;;
11220;SDS011;8517;53.546;10.104;2024-02-28T12:09:00;21.33;;;15.93;;
11220;SDS011;8517;53.546;10.104;2024-02-28T12:11:28;20.10;;;15.97;;
11220;SDS011;8517;53.546;10.104;2024-02-28T12:13:55;23.93;;;16.13;;
11220;SDS011;8517;53.546;10.104;2024-02-28T12:16:24;19.57;;;15.57;;
11220;SDS011;8517;53.546;10.104;2024-02-28T12:18:52;22.00;;;16.20;;
11220;SDS011;8517;53.546;10.104;2024-02-28T12:21:19;22.07;;;16.00;;
11220;SDS011;8517;53.546;10.104;2024-02-28T12:23:46;19.50;;;14.17;;
11220;SDS011;8517;53.546;10.104;2024-02-28T12:26:14;21.63;;;17.00;;
11220;SDS011;8517;53.546;10.104;2024-02-28T12:28:44;20.77;;;16.70;;
11220;SDS011;8517;53.546;10.104;2024-02-28T12:31:10;23.43;;;16.37;;
11220;SDS011;8517;53.546;10.104;2024-02-28T12:33:38;25.70;;;16.80;;
11220;SDS011;8517;53.546;10.104;2024-02-28T12:36:05;22.17;;;16.90;;
11220;SDS011;8517;53.546;10.104;2024-02-28T12:38:32;25.33;;;17.07;;
11220;SDS011;8517;53.546;10.104;2024-02-28T12:40:59;25.97;;;16.87;;
11220;SDS011;8517;53.546;10.104;2024-02-28T12:43:27;21.50;;;16.37;;
11220;SDS011;8517;53.546;10.104;2024-02-28T12:45:57;25.40;;;16.73;;
11220;SDS011;8517;53.546;10.104;2024-02-28T12:48:23;21.90;;;16.37;;
11220;SDS011;8517;53.546;10.104;2024-02-28T12:50:50;24.20;;;17.27;;
11220;SDS011;8517;53.546;10.104;2024-02-28T12:53:17;21.60;;;17.13;;
11220;SDS011;8517;53.546;10.104;2024-02-28T12:55:44;24.50;;;17.70;;
11220;SDS011;8517;53.546;10.104;2024-02-28T12:58:11;22.40;;;17.73;;
11220;SDS011;8517;53.546;10.104;2024-02-28T13:00:38;22.60;;;17.03;;
11220;SDS011;8517;53.546;10.104;2024-02-28T13:03:06;25.10;;;18.10;;
11220;SDS011;8517;53.546;10.104;2024-02-28T13:05:33;25.03;;;16.60;;
11220;SDS011;8517;53.546;10.104;2024-02-28T13:07:59;21.70;;;17.17;;
11220;SDS011;8517;53.546;10.104;2024-02-28T13:10:26;22.47;;;17.07;;
11220;SDS011;8517;53.546;10.104;2024-02-28T13:12:53;21.77;;;16.40;;
11220;SDS011;8517;53.546;10.104;2024-02-28T13:15:20;24.23;;;17.10;;
11220;SDS011;8517;53.546;10.104;2024-02-28T13:17:48;21.83;;;17.03;;
11220;SDS011;8517;53.546;10.104;2024-02-28T13:20:18;25.97;;;17.43;;
11220;SDS011;8517;53.546;10.104;2024-02-28T13:22:47;20.77;;;16.67;;
11220;SDS011;8517;53.546;10.104;2024-02-28T13:25:13;23.03;;;16.40;;
11220;SDS011;8517;53.546;10.104;2024-02-28T13:27:43;22.70;;;15.73;;
11220;SDS011;8517;53.546;10.104;2024-02-28T13:30:10;19.97;;;15.80;;
11220;SDS011;8517;53.546;10.104;2024-02-28T13:32:37;19.83;;;14.73;;
11220;SDS011;8517;53.546;10.104;2024-02-28T13:35:04;20.80;;;15.07;;
11220;SDS011;8517;53.546;10.104;2024-02-28T13:37:33;75.93;;;55.57;;
11220;SDS011;8517;53.546;10.104;2024-02-28T13:40:00;21.03;;;17.17;;
11220;SDS011;8517;53.546;10.104;2024-02-28T13:42:29;22.17;;;15.17;;
11220;SDS011;8517;53.546;10.104;2024-02-28T13:44:56;22.33;;;15.10;;
11220;SDS011;8517;53.546;10.104;2024-02-28T13:47:23;22.10;;;15.67;;
11220;SDS011;8517;53.546;10.104;2024-02-28T13:49:50;22.20;;;15.37;;
11220;SDS011;8517;53.546;10.104;2024-02-28T13:52:17;24.10;;;16.07;;
11220;SDS011;8517;53.546;10.104;2024-02-28T13:54:45;18.70;;;15.17;;
11220;SDS011;8517;53.546;10.104;2024-02-28T13:57:12;17.73;;;14.40;;
11220;SDS011;8517;53.546;10.104;2024-02-28T13:59:39;19.80;;;14.87;;
11220;SDS011;8517;53.546;10.104;2024-02-28T14:02:06;21.40;;;15.20;;
11220;SDS011;8517;53.546;10.104;2024-02-28T14:04:35;20.13;;;15.70;;
11220;SDS011;8517;53.546;10.104;2024-02-28T14:07:03;18.67;;;14.10;;
11220;SDS011;8517;53.546;10.104;2024-02-28T14:09:30;18.97;;;15.33;;
11220;SDS011;8517;53.546;10.104;2024-02-28T14:11:58;25.43;;;15.50;;
11220;SDS011;8517;53.546;10.104;2024-02-28T14:14:25;18.30;;;14.20;;
11220;SDS011;8517;53.546;10.104;2024-02-28T14:16:52;19.47;;;15.07;;
11220;SDS011;8517;53.546;10.104;2024-02-28T14:19:19;18.93;;;14.03;;
11220;SDS011;8517;53.546;10.104;2024-02-28T14:21:46;18.03;;;14.53;;
11220;SDS011;8517;53.546;10.104;2024-02-28T14:24:12;18.90;;;14.00;;
11220;SDS011;8517;53.546;10.104;2024-02-28T14:26:43;19.63;;;14.07;;